sensor_id;sensor_type;location;lat;lon;timestamp;pressure;altitude;pressure_sealevel;temperature;humidity
23899;BME280;20544;50.018;20.010;2023-04-09T00:00:23;99439.64;;;4.12;100.00
23899;BME280;20544;50.018;20.010;2023-04-09T00:03:42;99444.07;;;4.11;100.00
23899;BME280;20544;50.018;20.010;2023-04-09T00:06:59;99438.82;;;4.11;100.00
23899;BME280;20544;50.018;20.010;2023-04-09T00:10:15;99446.50;;;3.92;100.00
23899;BME280;20544;50.018;20.010;2023-04-09T00:13:32;99448.27;;;3.91;100.00
23899;BME280;20544;50.018;20.010;2023-04-09T00:16:48;99454.86;;;3.85;100.00
23899;BME280;20544;50.018;20.010;2023-04-09T00:20:06;99447.22;;;3.82;100.00
23899;BME280;20544;50.018;20.010;2023-04-09T00:23:24;99442.09;;;3.81;100.00
23899;BME280;20544;50.018;20.010;2023-04-09T00:33:12;99454.02;;;3.96;100.00
23899;BME280;20544;50.018;20.010;2023-04-09T00:36:28;99444.08;;;4.00;100.00
23899;BME280;20544;50.018;20.010;2023-04-09T00:39:44;99443.61;;;3.95;100.00
23899;BME280;20544;50.018;20.010;2023-04-09T00:43:01;99447.91;;;3.96;100.00
23899;BME280;20544;50.018;20.010;2023-04-09T00:46:18;99444.92;;;4.00;100.00
23899;BME280;20544;50.018;20.010;2023-04-09T00:49:35;99443.13;;;4.01;100.00
23899;BME280;20544;50.018;20.010;2023-04-09T00:52:53;99437.28;;;3.97;100.00
23899;BME280;20544;50.018;20.010;2023-04-09T00:56:11;99446.14;;;3.96;100.00
23899;BME280;20544;50.018;20.010;2023-04-09T00:59:30;99440.40;;;3.91;100.00
23899;BME280;20544;50.018;20.010;2023-04-09T01:02:48;99437.55;;;3.94;100.00
23899;BME280;20544;50.018;20.010;2023-04-09T01:06:09;99431.54;;;4.03;100.00
23899;BME280;20544;50.018;20.010;2023-04-09T01:09:32;99438.33;;;4.06;100.00
23899;BME280;20544;50.018;20.010;2023-04-09T01:16:07;99441.81;;;4.07;100.00
23899;BME280;20544;50.018;20.010;2023-04-09T01:19:28;99434.06;;;4.05;100.00
23899;BME280;20544;50.018;20.010;2023-04-09T01:22:55;99436.00;;;3.92;100.00
23899;BME280;20544;50.018;20.010;2023-04-09T01:26:26;99433.73;;;3.87;100.00
23899;BME280;20544;50.018;20.010;2023-04-09T01:29:45;99434.81;;;3.84;100.00
23899;BME280;20544;50.018;20.010;2023-04-09T01:33:04;99425.14;;;3.85;100.00
23899;BME280;20544;50.018;20.010;2023-04-09T01:36:21;99429.08;;;3.91;100.00
23899;BME280;20544;50.018;20.010;2023-04-09T01:39:40;99424.16;;;3.97;100.00
23899;BME280;20544;50.018;20.010;2023-04-09T01:42:57;99432.13;;;4.07;100.00
23899;BME280;20544;50.018;20.010;2023-04-09T01:46:17;99432.48;;;4.14;100.00
23899;BME280;20544;50.018;20.010;2023-04-09T01:49:35;99441.77;;;4.18;100.00
23899;BME280;20544;50.018;20.010;2023-04-09T01:52:55;99438.29;;;4.17;100.00
23899;BME280;20544;50.018;20.010;2023-04-09T01:56:11;99447.16;;;4.16;100.00
23899;BME280;20544;50.018;20.010;2023-04-09T01:59:28;99443.31;;;4.20;100.00
23899;BME280;20544;50.018;20.010;2023-04-09T02:02:47;99447.16;;;4.16;100.00
23899;BME280;20544;50.018;20.010;2023-04-09T02:06:11;99447.52;;;4.12;100.00
23899;BME280;20544;50.018;20.010;2023-04-09T02:09:32;99448.23;;;4.14;100.00
23899;BME280;20544;50.018;20.010;2023-04-09T02:12:51;99449.19;;;4.13;100.00
23899;BME280;20544;50.018;20.010;2023-04-09T02:16:09;99452.55;;;4.03;100.00
23899;BME280;20544;50.018;20.010;2023-04-09T02:19:33;99456.14;;;3.91;100.00
23899;BME280;20544;50.018;20.010;2023-04-09T02:22:55;99456.87;;;3.93;100.00
23899;BME280;20544;50.018;20.010;2023-04-09T02:26:13;99458.19;;;3.99;100.00
23899;BME280;20544;50.018;20.010;2023-04-09T02:29:30;99459.13;;;3.98;100.00
23899;BME280;20544;50.018;20.010;2023-04-09T02:32:46;99451.88;;;3.90;100.00
23899;BME280;20544;50.018;20.010;2023-04-09T02:36:03;99445.45;;;3.83;100.00
23899;BME280;20544;50.018;20.010;2023-04-09T02:39:20;99449.73;;;3.72;100.00
23899;BME280;20544;50.018;20.010;2023-04-09T02:42:37;99440.68;;;3.77;100.00
23899;BME280;20544;50.018;20.010;2023-04-09T02:45:53;99440.06;;;3.84;100.00
23899;BME280;20544;50.018;20.010;2023-04-09T02:49:10;99443.28;;;3.88;100.00
23899;BME280;20544;50.018;20.010;2023-04-09T02:52:26;99438.75;;;3.90;100.00
23899;BME280;20544;50.018;20.010;2023-04-09T02:55:43;99445.29;;;3.96;100.00
23899;BME280;20544;50.018;20.010;2023-04-09T03:02:15;99449.33;;;4.00;100.00
23899;BME280;20544;50.018;20.010;2023-04-09T03:05:32;99447.55;;;4.00;100.00
23899;BME280;20544;50.018;20.010;2023-04-09T03:08:49;99443.98;;;4.01;100.00
23899;BME280;20544;50.018;20.010;2023-04-09T03:12:06;99445.52;;;4.04;100.00
23899;BME280;20544;50.018;20.010;2023-04-09T03:15:22;99450.28;;;4.10;100.00
23899;BME280;20544;50.018;20.010;2023-04-09T03:18:38;99442.40;;;4.10;100.00
23899;BME280;20544;50.018;20.010;2023-04-09T03:21:55;99448.47;;;4.11;100.00
23899;BME280;20544;50.018;20.010;2023-04-09T03:25:11;99443.94;;;4.13;100.00
23899;BME280;20544;50.018;20.010;2023-04-09T03:28:31;99445.84;;;4.11;100.00
23899;BME280;20544;50.018;20.010;2023-04-09T03:31:47;99451.69;;;4.14;100.00
23899;BME280;20544;50.018;20.010;2023-04-09T03:35:04;99449.06;;;4.14;100.00
23899;BME280;20544;50.018;20.010;2023-04-09T03:38:22;99451.55;;;4.16;100.00
23899;BME280;20544;50.018;20.010;2023-04-09T03:41:40;99447.16;;;4.16;100.00
23899;BME280;20544;50.018;20.010;2023-04-09T03:44:59;99437.11;;;4.21;100.00
23899;BME280;20544;50.018;20.010;2023-04-09T03:48:18;99441.27;;;4.24;100.00
23899;BME280;20544;50.018;20.010;2023-04-09T03:51:35;99437.11;;;4.21;100.00
23899;BME280;20544;50.018;20.010;2023-04-09T03:54:53;99446.89;;;4.19;100.00
23899;BME280;20544;50.018;20.010;2023-04-09T03:58:09;99443.55;;;4.17;100.00
23899;BME280;20544;50.018;20.010;2023-04-09T04:01:28;99446.56;;;4.13;100.00
23899;BME280;20544;50.018;20.010;2023-04-09T04:04:47;99448.80;;;4.17;100.00
23899;BME280;20544;50.018;20.010;2023-04-09T04:08:05;99454.90;;;4.18;100.00
23899;BME280;20544;50.018;20.010;2023-04-09T04:11:22;99453.81;;;4.20;100.00
23899;BME280;20544;50.018;20.010;2023-04-09T04:14:38;99450.83;;;4.25;100.00
23899;BME280;20544;50.018;20.010;2023-04-09T04:17:56;99462.88;;;4.28;100.00
23899;BME280;20544;50.018;20.010;2023-04-09T04:21:18;99452.23;;;4.29;100.00
23899;BME280;20544;50.018;20.010;2023-04-09T04:24:37;99455.58;;;4.31;100.00
23899;BME280;20544;50.018;20.010;2023-04-09T04:31:12;99463.28;;;4.44;100.00
23899;BME280;20544;50.018;20.010;2023-04-09T04:34:29;99465.41;;;4.50;100.00
23899;BME280;20544;50.018;20.010;2023-04-09T04:37:49;99462.99;;;4.59;100.00
23899;BME280;20544;50.018;20.010;2023-04-09T04:41:11;99464.27;;;4.64;100.00
23899;BME280;20544;50.018;20.010;2023-04-09T04:44:29;99466.75;;;4.66;100.00
23899;BME280;20544;50.018;20.010;2023-04-09T04:47:48;99469.28;;;4.67;100.00
23899;BME280;20544;50.018;20.010;2023-04-09T04:51:07;99467.23;;;4.71;100.00
23899;BME280;20544;50.018;20.010;2023-04-09T04:54:27;99475.67;;;4.75;100.00
23899;BME280;20544;50.018;20.010;2023-04-09T04:57:45;99475.56;;;4.76;100.00
23899;BME280;20544;50.018;20.010;2023-04-09T05:01:03;99469.08;;;4.80;100.00
23899;BME280;20544;50.018;20.010;2023-04-09T05:04:20;99473.11;;;4.84;100.00
23899;BME280;20544;50.018;20.010;2023-04-09T05:07:37;99478.27;;;4.86;100.00
23899;BME280;20544;50.018;20.010;2023-04-09T05:10:54;99478.00;;;4.89;100.00
23899;BME280;20544;50.018;20.010;2023-04-09T05:17:27;99474.78;;;4.85;100.00
23899;BME280;20544;50.018;20.010;2023-04-09T05:20:45;99477.10;;;4.79;100.00
23899;BME280;20544;50.018;20.010;2023-04-09T05:24:03;99477.34;;;4.76;100.00
23899;BME280;20544;50.018;20.010;2023-04-09T05:27:20;99473.31;;;4.72;100.00
23899;BME280;20544;50.018;20.010;2023-04-09T05:30:39;99478.56;;;4.72;100.00
23899;BME280;20544;50.018;20.010;2023-04-09T05:33:57;99483.82;;;4.72;100.00
23899;BME280;20544;50.018;20.010;2023-04-09T05:37:24;99486.45;;;4.72;100.00
23899;BME280;20544;50.018;20.010;2023-04-09T05:40:40;99488.13;;;4.73;100.00
23899;BME280;20544;50.018;20.010;2023-04-09T05:43:58;99488.63;;;4.66;100.00
23899;BME280;20544;50.018;20.010;2023-04-09T05:47:16;99501.64;;;4.68;100.00
23899;BME280;20544;50.018;20.010;2023-04-09T05:50:37;99496.14;;;4.71;100.00
23899;BME280;20544;50.018;20.010;2023-04-09T05:53:57;99499.80;;;4.80;100.00
23899;BME280;20544;50.018;20.010;2023-04-09T05:57:15;99499.98;;;4.88;100.00
23899;BME280;20544;50.018;20.010;2023-04-09T06:00:33;99506.41;;;4.95;100.00
23899;BME280;20544;50.018;20.010;2023-04-09T06:03:50;99495.69;;;5.08;100.00
23899;BME280;20544;50.018;20.010;2023-04-09T06:07:09;99504.92;;;5.24;100.00
23899;BME280;20544;50.018;20.010;2023-04-09T06:10:25;99502.60;;;5.30;100.00
23899;BME280;20544;50.018;20.010;2023-04-09T06:13:42;99511.13;;;5.44;100.00
23899;BME280;20544;50.018;20.010;2023-04-09T06:17:00;99518.41;;;5.61;100.00
23899;BME280;20544;50.018;20.010;2023-04-09T06:20:17;99518.45;;;5.71;100.00
23899;BME280;20544;50.018;20.010;2023-04-09T06:23:34;99511.70;;;5.78;100.00
23899;BME280;20544;50.018;20.010;2023-04-09T06:26:51;99511.16;;;5.85;100.00
23899;BME280;20544;50.018;20.010;2023-04-09T06:30:10;99520.52;;;5.98;100.00
23899;BME280;20544;50.018;20.010;2023-04-09T06:33:27;99520.63;;;5.97;100.00
23899;BME280;20544;50.018;20.010;2023-04-09T06:36:43;99524.56;;;6.12;100.00
23899;BME280;20544;50.018;20.010;2023-04-09T06:40:00;99525.28;;;6.14;100.00
23899;BME280;20544;50.018;20.010;2023-04-09T06:43:17;99532.64;;;6.21;100.00
23899;BME280;20544;50.018;20.010;2023-04-09T06:46:34;99527.09;;;6.24;100.00
23899;BME280;20544;50.018;20.010;2023-04-09T06:49:50;99532.94;;;6.37;100.00
23899;BME280;20544;50.018;20.010;2023-04-09T06:53:07;99533.50;;;6.41;100.00
23899;BME280;20544;50.018;20.010;2023-04-09T06:56:24;99533.07;;;6.45;100.00
23899;BME280;20544;50.018;20.010;2023-04-09T06:59:40;99537.69;;;6.53;100.00
23899;BME280;20544;50.018;20.010;2023-04-09T07:02:56;99542.82;;;6.64;100.00
23899;BME280;20544;50.018;20.010;2023-04-09T07:06:14;99541.42;;;6.80;100.00
23899;BME280;20544;50.018;20.010;2023-04-09T07:09:30;99546.44;;;6.93;100.00
23899;BME280;20544;50.018;20.010;2023-04-09T07:12:47;99547.92;;;7.15;100.00
23899;BME280;20544;50.018;20.010;2023-04-09T07:16:04;99541.78;;;7.44;100.00
23899;BME280;20544;50.018;20.010;2023-04-09T07:19:20;99549.45;;;8.31;100.00
23899;BME280;20544;50.018;20.010;2023-04-09T07:22:37;99547.07;;;8.37;100.00
23899;BME280;20544;50.018;20.010;2023-04-09T07:25:54;99541.91;;;8.36;100.00
23899;BME280;20544;50.018;20.010;2023-04-09T07:29:11;99552.35;;;9.54;100.00
23899;BME280;20544;50.018;20.010;2023-04-09T07:32:29;99561.02;;;9.91;100.00
23899;BME280;20544;50.018;20.010;2023-04-09T07:35:46;99556.27;;;10.54;100.00
23899;BME280;20544;50.018;20.010;2023-04-09T07:39:03;99559.63;;;11.30;100.00
23899;BME280;20544;50.018;20.010;2023-04-09T07:42:20;99566.41;;;12.13;100.00
23899;BME280;20544;50.018;20.010;2023-04-09T07:45:38;99571.09;;;11.95;100.00
23899;BME280;20544;50.018;20.010;2023-04-09T07:48:55;99580.55;;;12.14;100.00
23899;BME280;20544;50.018;20.010;2023-04-09T07:52:11;99578.11;;;12.36;100.00
23899;BME280;20544;50.018;20.010;2023-04-09T07:55:28;99585.00;;;12.85;100.00
23899;BME280;20544;50.018;20.010;2023-04-09T07:58:44;99580.91;;;12.74;100.00
23899;BME280;20544;50.018;20.010;2023-04-09T08:02:03;99583.86;;;12.79;100.00
23899;BME280;20544;50.018;20.010;2023-04-09T08:05:22;99576.04;;;13.01;100.00
23899;BME280;20544;50.018;20.010;2023-04-09T08:08:39;99577.69;;;13.25;100.00
23899;BME280;20544;50.018;20.010;2023-04-09T08:11:55;99578.30;;;12.89;100.00
23899;BME280;20544;50.018;20.010;2023-04-09T08:15:37;99583.59;;;13.35;100.00
23899;BME280;20544;50.018;20.010;2023-04-09T08:18:55;99584.06;;;13.92;100.00
23899;BME280;20544;50.018;20.010;2023-04-09T08:22:12;99592.33;;;14.12;100.00
23899;BME280;20544;50.018;20.010;2023-04-09T08:25:29;99583.72;;;14.47;100.00
23899;BME280;20544;50.018;20.010;2023-04-09T08:28:51;99587.48;;;15.11;100.00
23899;BME280;20544;50.018;20.010;2023-04-09T08:32:08;99587.27;;;15.34;100.00
23899;BME280;20544;50.018;20.010;2023-04-09T08:35:25;99588.03;;;15.56;100.00
23899;BME280;20544;50.018;20.010;2023-04-09T08:38:43;99586.05;;;15.36;100.00
23899;BME280;20544;50.018;20.010;2023-04-09T08:42:02;99585.88;;;14.73;100.00
23899;BME280;20544;50.018;20.010;2023-04-09T08:45:20;99583.86;;;14.08;100.00
23899;BME280;20544;50.018;20.010;2023-04-09T08:48:37;99579.63;;;13.31;100.00
23899;BME280;20544;50.018;20.010;2023-04-09T08:51:55;99575.09;;;13.40;100.00
23899;BME280;20544;50.018;20.010;2023-04-09T08:55:13;99583.17;;;13.47;100.00
23899;BME280;20544;50.018;20.010;2023-04-09T08:58:29;99583.69;;;13.04;100.00
23899;BME280;20544;50.018;20.010;2023-04-09T09:01:46;99578.46;;;13.10;100.00
23899;BME280;20544;50.018;20.010;2023-04-09T09:05:03;99578.94;;;13.14;100.00
23899;BME280;20544;50.018;20.010;2023-04-09T09:08:26;99585.45;;;13.11;100.00
23899;BME280;20544;50.018;20.010;2023-04-09T09:11:43;99574.51;;;13.06;100.00
23899;BME280;20544;50.018;20.010;2023-04-09T09:15:02;99582.63;;;12.90;100.00
23899;BME280;20544;50.018;20.010;2023-04-09T09:18:20;99583.75;;;12.72;100.00
23899;BME280;20544;50.018;20.010;2023-04-09T09:21:40;99580.46;;;12.62;100.00
23899;BME280;20544;50.018;20.010;2023-04-09T09:24:56;99578.83;;;12.84;100.00
23899;BME280;20544;50.018;20.010;2023-04-09T09:28:14;99579.35;;;12.79;100.00
23899;BME280;20544;50.018;20.010;2023-04-09T09:31:30;99581.53;;;12.76;100.00
23899;BME280;20544;50.018;20.010;2023-04-09T09:35:01;99583.97;;;12.86;100.00
23899;BME280;20544;50.018;20.010;2023-04-09T09:38:20;99582.42;;;12.68;100.00
23899;BME280;20544;50.018;20.010;2023-04-09T09:41:37;99580.84;;;12.27;100.00
23899;BME280;20544;50.018;20.010;2023-04-09T09:44:55;99577.00;;;12.30;100.00
23899;BME280;20544;50.018;20.010;2023-04-09T09:48:13;99579.59;;;12.38;100.00
23899;BME280;20544;50.018;20.010;2023-04-09T09:51:30;99567.88;;;11.68;100.00
23899;BME280;20544;50.018;20.010;2023-04-09T09:54:51;99569.80;;;11.91;100.00
23899;BME280;20544;50.018;20.010;2023-04-09T09:58:15;99566.63;;;11.95;100.00
23899;BME280;20544;50.018;20.010;2023-04-09T10:01:32;99570.84;;;11.73;100.00
23899;BME280;20544;50.018;20.010;2023-04-09T10:04:49;99556.06;;;11.79;100.00
23899;BME280;20544;50.018;20.010;2023-04-09T10:08:08;99557.87;;;11.78;100.00
23899;BME280;20544;50.018;20.010;2023-04-09T10:11:25;99559.52;;;11.88;100.00
23899;BME280;20544;50.018;20.010;2023-04-09T10:14:42;99561.63;;;12.09;100.00
23899;BME280;20544;50.018;20.010;2023-04-09T10:18:00;99560.09;;;12.14;100.00
23899;BME280;20544;50.018;20.010;2023-04-09T10:21:22;99554.78;;;12.14;100.00
23899;BME280;20544;50.018;20.010;2023-04-09T10:24:41;99548.36;;;12.01;100.00
23899;BME280;20544;50.018;20.010;2023-04-09T10:28:05;99549.03;;;12.03;100.00
23899;BME280;20544;50.018;20.010;2023-04-09T10:31:26;99549.13;;;12.18;100.00
23899;BME280;20544;50.018;20.010;2023-04-09T10:34:44;99543.96;;;12.16;100.00
23899;BME280;20544;50.018;20.010;2023-04-09T10:38:02;99545.03;;;11.98;100.00
23899;BME280;20544;50.018;20.010;2023-04-09T10:41:26;99552.50;;;12.03;100.00
23899;BME280;20544;50.018;20.010;2023-04-09T10:44:43;99547.36;;;11.93;100.00
23899;BME280;20544;50.018;20.010;2023-04-09T10:48:02;99546.86;;;11.90;100.00
23899;BME280;20544;50.018;20.010;2023-04-09T10:51:21;99546.92;;;11.73;100.00
23899;BME280;20544;50.018;20.010;2023-04-09T10:54:45;99551.26;;;11.66;100.00
23899;BME280;20544;50.018;20.010;2023-04-09T10:58:03;99550.09;;;11.69;100.00
23899;BME280;20544;50.018;20.010;2023-04-09T11:01:23;99542.47;;;11.65;100.00
23899;BME280;20544;50.018;20.010;2023-04-09T11:04:45;99544.31;;;11.57;100.00
23899;BME280;20544;50.018;20.010;2023-04-09T11:08:08;99535.50;;;11.56;100.00
23899;BME280;20544;50.018;20.010;2023-04-09T11:11:28;99539.69;;;11.51;100.00
23899;BME280;20544;50.018;20.010;2023-04-09T11:14:45;99541.67;;;11.48;100.00
23899;BME280;20544;50.018;20.010;2023-04-09T11:18:02;99540.67;;;11.49;100.00
23899;BME280;20544;50.018;20.010;2023-04-09T11:21:20;99543.01;;;11.53;100.00
23899;BME280;20544;50.018;20.010;2023-04-09T11:24:42;99538.69;;;11.52;100.00
23899;BME280;20544;50.018;20.010;2023-04-09T11:28:01;99539.19;;;11.55;100.00
23899;BME280;20544;50.018;20.010;2023-04-09T11:31:18;99540.67;;;11.58;100.00
23899;BME280;20544;50.018;20.010;2023-04-09T11:34:34;99531.08;;;11.40;100.00
23899;BME280;20544;50.018;20.010;2023-04-09T11:37:51;99531.58;;;11.27;100.00
23899;BME280;20544;50.018;20.010;2023-04-09T11:41:08;99534.91;;;11.29;100.00
23899;BME280;20544;50.018;20.010;2023-04-09T11:44:24;99533.38;;;11.35;100.00
23899;BME280;20544;50.018;20.010;2023-04-09T11:47:42;99541.06;;;11.22;100.00
23899;BME280;20544;50.018;20.010;2023-04-09T11:51:00;99531.75;;;11.34;100.00
23899;BME280;20544;50.018;20.010;2023-04-09T11:54:17;99537.03;;;11.42;100.00
23899;BME280;20544;50.018;20.010;2023-04-09T11:57:44;99538.52;;;11.53;100.00
23899;BME280;20544;50.018;20.010;2023-04-09T12:01:01;99543.15;;;11.59;100.00
23899;BME280;20544;50.018;20.010;2023-04-09T12:04:21;99535.17;;;11.68;100.00
23899;BME280;20544;50.018;20.010;2023-04-09T12:07:39;99545.58;;;11.77;100.00
23899;BME280;20544;50.018;20.010;2023-04-09T12:11:07;99550.74;;;11.79;100.00
23899;BME280;20544;50.018;20.010;2023-04-09T12:14:24;99546.44;;;11.70;100.00
23899;BME280;20544;50.018;20.010;2023-04-09T12:17:42;99546.11;;;11.73;100.00
23899;BME280;20544;50.018;20.010;2023-04-09T12:21:05;99548.59;;;11.66;100.00
23899;BME280;20544;50.018;20.010;2023-04-09T12:24:23;99547.11;;;11.63;100.00
23899;BME280;20544;50.018;20.010;2023-04-09T12:27:39;99549.13;;;11.61;100.00
23899;BME280;20544;50.018;20.010;2023-04-09T12:30:59;99535.98;;;11.68;100.00
23899;BME280;20544;50.018;20.010;2023-04-09T12:34:15;99536.65;;;11.70;100.00
23899;BME280;20544;50.018;20.010;2023-04-09T12:37:31;99538.83;;;11.58;100.00
23899;BME280;20544;50.018;20.010;2023-04-09T12:40:48;99535.98;;;11.68;100.00
23899;BME280;20544;50.018;20.010;2023-04-09T12:44:05;99536.65;;;11.70;100.00
23899;BME280;20544;50.018;20.010;2023-04-09T12:47:21;99528.70;;;11.54;100.00
23899;BME280;20544;50.018;20.010;2023-04-09T12:50:37;99532.84;;;11.64;100.00
23899;BME280;20544;50.018;20.010;2023-04-09T12:53:54;99533.33;;;11.68;100.00
23899;BME280;20544;50.018;20.010;2023-04-09T12:57:12;99532.02;;;11.64;100.00
23899;BME280;20544;50.018;20.010;2023-04-09T13:00:28;99530.99;;;11.65;100.00
23899;BME280;20544;50.018;20.010;2023-04-09T13:03:45;99528.02;;;11.68;100.00
23899;BME280;20544;50.018;20.010;2023-04-09T13:07:02;99535.98;;;11.68;100.00
23899;BME280;20544;50.018;20.010;2023-04-09T13:10:20;99531.97;;;11.72;100.00
23899;BME280;20544;50.018;20.010;2023-04-09T13:13:37;99524.85;;;11.73;100.00
23899;BME280;20544;50.018;20.010;2023-04-09T13:16:53;99528.32;;;11.73;100.00
23899;BME280;20544;50.018;20.010;2023-04-09T13:20:12;99528.99;;;11.75;100.00
23899;BME280;20544;50.018;20.010;2023-04-09T13:23:29;99529.36;;;11.64;100.00
23899;BME280;20544;50.018;20.010;2023-04-09T13:26:51;99530.00;;;11.66;100.00
23899;BME280;20544;50.018;20.010;2023-04-09T13:30:10;99533.87;;;11.55;100.00
23899;BME280;20544;50.018;20.010;2023-04-09T13:33:27;99529.02;;;11.59;100.00
23899;BME280;20544;50.018;20.010;2023-04-09T13:36:44;99530.48;;;11.70;100.00
23899;BME280;20544;50.018;20.010;2023-04-09T13:40:00;99527.51;;;11.73;100.00
23899;BME280;20544;50.018;20.010;2023-04-09T13:43:18;99527.15;;;11.76;100.00
23899;BME280;20544;50.018;20.010;2023-04-09T13:46:36;99523.55;;;11.60;100.00
23899;BME280;20544;50.018;20.010;2023-04-09T13:49:53;99523.06;;;11.57;100.00
23899;BME280;20544;50.018;20.010;2023-04-09T13:53:09;99521.03;;;11.67;100.00
23899;BME280;20544;50.018;20.010;2023-04-09T13:56:25;99523.88;;;11.65;100.00
23899;BME280;20544;50.018;20.010;2023-04-09T13:59:43;99524.69;;;11.66;100.00
23899;BME280;20544;50.018;20.010;2023-04-09T14:02:59;99519.66;;;11.79;100.00
23899;BME280;20544;50.018;20.010;2023-04-09T14:06:16;99521.15;;;11.82;100.00
23899;BME280;20544;50.018;20.010;2023-04-09T14:09:32;99519.47;;;11.89;100.00
23899;BME280;20544;50.018;20.010;2023-04-09T14:12:48;99510.98;;;11.94;100.00
23899;BME280;20544;50.018;20.010;2023-04-09T14:16:09;99514.35;;;11.79;100.00
23899;BME280;20544;50.018;20.010;2023-04-09T14:19:26;99513.91;;;11.68;100.00
23899;BME280;20544;50.018;20.010;2023-04-09T14:22:43;99506.93;;;11.67;100.00
23899;BME280;20544;50.018;20.010;2023-04-09T14:25:59;99509.72;;;11.73;100.00
23899;BME280;20544;50.018;20.010;2023-04-09T14:29:16;99500.25;;;11.79;100.00
23899;BME280;20544;50.018;20.010;2023-04-09T14:32:33;99504.77;;;11.70;100.00
23899;BME280;20544;50.018;20.010;2023-04-09T14:35:51;99504.89;;;11.77;100.00
23899;BME280;20544;50.018;20.010;2023-04-09T14:39:08;99502.23;;;11.77;100.00
23899;BME280;20544;50.018;20.010;2023-04-09T14:42:27;99504.47;;;11.57;100.00
23899;BME280;20544;50.018;20.010;2023-04-09T14:45:45;99497.12;;;11.67;100.00
23899;BME280;20544;50.018;20.010;2023-04-09T14:49:02;99496.81;;;11.62;100.00
23899;BME280;20544;50.018;20.010;2023-04-09T14:52:21;99488.84;;;11.62;100.00
23899;BME280;20544;50.018;20.010;2023-04-09T14:55:39;99493.80;;;11.65;100.00
23899;BME280;20544;50.018;20.010;2023-04-09T14:58:55;99484.83;;;11.66;100.00
23899;BME280;20544;50.018;20.010;2023-04-09T15:02:12;99492.80;;;11.66;100.00
23899;BME280;20544;50.018;20.010;2023-04-09T15:05:29;99486.31;;;11.69;100.00
23899;BME280;20544;50.018;20.010;2023-04-09T15:08:47;99484.14;;;11.72;100.00
23899;BME280;20544;50.018;20.010;2023-04-09T15:12:03;99483.33;;;11.72;100.00
23899;BME280;20544;50.018;20.010;2023-04-09T15:15:21;99488.46;;;11.73;100.00
23899;BME280;20544;50.018;20.010;2023-04-09T15:18:38;99485.14;;;11.71;100.00
23899;BME280;20544;50.018;20.010;2023-04-09T15:21:56;99485.82;;;11.65;100.00
23899;BME280;20544;50.018;20.010;2023-04-09T15:25:13;99489.66;;;11.62;100.00
23899;BME280;20544;50.018;20.010;2023-04-09T15:28:29;99479.02;;;11.62;100.00
23899;BME280;20544;50.018;20.010;2023-04-09T15:31:46;99479.56;;;11.58;100.00
23899;BME280;20544;50.018;20.010;2023-04-09T15:35:03;99476.74;;;11.51;100.00
23899;BME280;20544;50.018;20.010;2023-04-09T15:38:21;99480.06;;;11.53;100.00
23899;BME280;20544;50.018;20.010;2023-04-09T15:41:38;99479.93;;;11.46;100.00
23899;BME280;20544;50.018;20.010;2023-04-09T15:44:56;99483.73;;;11.44;100.00
23899;BME280;20544;50.018;20.010;2023-04-09T15:48:12;99477.95;;;11.40;100.00
23899;BME280;20544;50.018;20.010;2023-04-09T15:51:28;99478.59;;;11.42;100.00
23899;BME280;20544;50.018;20.010;2023-04-09T15:54:45;99481.92;;;11.44;100.00
23899;BME280;20544;50.018;20.010;2023-04-09T15:58:01;99483.27;;;11.40;100.00
23899;BME280;20544;50.018;20.010;2023-04-09T16:01:18;99476.30;;;11.39;100.00
23899;BME280;20544;50.018;20.010;2023-04-09T16:04:36;99482.60;;;11.38;100.00
23899;BME280;20544;50.018;20.010;2023-04-09T16:07:53;99484.94;;;11.33;100.00
23899;BME280;20544;50.018;20.010;2023-04-09T16:11:11;99481.97;;;11.28;100.00
23899;BME280;20544;50.018;20.010;2023-04-09T16:14:28;99489.94;;;11.28;100.00
23899;BME280;20544;50.018;20.010;2023-04-09T16:17:44;99486.12;;;11.22;100.00
23899;BME280;20544;50.018;20.010;2023-04-09T16:21:03;99490.61;;;11.22;100.00
23899;BME280;20544;50.018;20.010;2023-04-09T16:24:20;99487.28;;;11.20;100.00
23899;BME280;20544;50.018;20.010;2023-04-09T16:27:42;99490.75;;;11.20;100.00
23899;BME280;20544;50.018;20.010;2023-04-09T16:31:03;99496.91;;;11.21;100.00
23899;BME280;20544;50.018;20.010;2023-04-09T16:34:19;99485.80;;;11.17;100.00
23899;BME280;20544;50.018;20.010;2023-04-09T16:37:36;99494.75;;;11.16;100.00
23899;BME280;20544;50.018;20.010;2023-04-09T16:40:53;99489.62;;;11.14;100.00
23899;BME280;20544;50.018;20.010;2023-04-09T16:44:09;99492.09;;;11.16;100.00
23899;BME280;20544;50.018;20.010;2023-04-09T16:47:25;99487.95;;;11.13;100.00
23899;BME280;20544;50.018;20.010;2023-04-09T16:50:42;99488.13;;;11.12;100.00
23899;BME280;20544;50.018;20.010;2023-04-09T16:54:01;99493.61;;;11.10;100.00
23899;BME280;20544;50.018;20.010;2023-04-09T16:57:17;99493.76;;;11.09;100.00
23899;BME280;20544;50.018;20.010;2023-04-09T17:00:34;99495.10;;;11.05;100.00
23899;BME280;20544;50.018;20.010;2023-04-09T17:03:53;99495.10;;;11.05;100.00
23899;BME280;20544;50.018;20.010;2023-04-09T17:07:11;99494.43;;;11.03;100.00
23899;BME280;20544;50.018;20.010;2023-04-09T17:10:28;99501.74;;;10.92;100.00
23899;BME280;20544;50.018;20.010;2023-04-09T17:13:46;99502.08;;;10.81;100.00
23899;BME280;20544;50.018;20.010;2023-04-09T17:17:03;99498.27;;;10.67;100.00
23899;BME280;20544;50.018;20.010;2023-04-09T17:20:21;99501.58;;;10.61;100.00
23899;BME280;20544;50.018;20.010;2023-04-09T17:23:38;99507.88;;;10.60;100.00
23899;BME280;20544;50.018;20.010;2023-04-09T17:26:55;99502.22;;;10.63;100.00